sensor_id;sensor_type;location;lat;lon;timestamp;P1;durP1;ratioP1;P2;durP2;ratioP2
7899;SDS011;3995;50.856;4.404;2023-03-23T00:00:14;5.03;;;3.70;;
7899;SDS011;3995;50.856;4.404;2023-03-23T00:02:42;7.73;;;3.70;;
7899;SDS011;3995;50.856;4.404;2023-03-23T00:05:10;5.30;;;3.60;;
7899;SDS011;3995;50.856;4.404;2023-03-23T00:07:39;3.70;;;3.10;;
7899;SDS011;3995;50.856;4.404;2023-03-23T00:10:10;4.17;;;2.90;;
7899;SDS011;3995;50.856;4.404;2023-03-23T00:12:37;5.93;;;3.67;;
7899;SDS011;3995;50.856;4.404;2023-03-23T00:15:08;3.63;;;2.87;;
7899;SDS011;3995;50.856;4.404;2023-03-23T00:17:38;3.90;;;3.17;;
7899;SDS011;3995;50.856;4.404;2023-03-23T00:20:06;4.53;;;3.23;;
7899;SDS011;3995;50.856;4.404;2023-03-23T00:22:35;4.90;;;3.03;;
7899;SDS011;3995;50.856;4.404;2023-03-23T00:25:04;4.83;;;3.43;;
7899;SDS011;3995;50.856;4.404;2023-03-23T00:27:33;3.87;;;2.90;;
7899;SDS011;3995;50.856;4.404;2023-03-23T00:30:00;3.20;;;2.87;;
7899;SDS011;3995;50.856;4.404;2023-03-23T00:32:27;2.80;;;2.57;;
7899;SDS011;3995;50.856;4.404;2023-03-23T00:34:55;4.03;;;3.00;;
7899;SDS011;3995;50.856;4.404;2023-03-23T00:37:23;3.33;;;2.77;;
7899;SDS011;3995;50.856;4.404;2023-03-23T00:39:51;5.50;;;3.70;;
7899;SDS011;3995;50.856;4.404;2023-03-23T00:42:24;3.73;;;2.60;;
7899;SDS011;3995;50.856;4.404;2023-03-23T00:44:51;3.20;;;2.90;;
7899;SDS011;3995;50.856;4.404;2023-03-23T00:47:25;3.90;;;3.10;;
7899;SDS011;3995;50.856;4.404;2023-03-23T00:49:52;3.67;;;3.37;;
7899;SDS011;3995;50.856;4.404;2023-03-23T00:52:21;3.17;;;2.67;;
7899;SDS011;3995;50.856;4.404;2023-03-23T00:54:49;3.10;;;2.80;;
7899;SDS011;3995;50.856;4.404;2023-03-23T00:57:16;3.20;;;2.50;;
7899;SDS011;3995;50.856;4.404;2023-03-23T00:59:44;7.50;;;3.40;;
7899;SDS011;3995;50.856;4.404;2023-03-23T01:02:11;5.17;;;3.10;;
7899;SDS011;3995;50.856;4.404;2023-03-23T01:04:38;4.30;;;2.90;;
7899;SDS011;3995;50.856;4.404;2023-03-23T01:07:09;3.70;;;2.80;;
7899;SDS011;3995;50.856;4.404;2023-03-23T01:09:38;5.10;;;4.37;;
7899;SDS011;3995;50.856;4.404;2023-03-23T01:12:05;3.33;;;2.67;;
7899;SDS011;3995;50.856;4.404;2023-03-23T01:14:33;3.30;;;2.80;;
7899;SDS011;3995;50.856;4.404;2023-03-23T01:17:01;4.00;;;3.13;;
7899;SDS011;3995;50.856;4.404;2023-03-23T01:19:29;3.47;;;3.00;;
7899;SDS011;3995;50.856;4.404;2023-03-23T01:21:56;3.30;;;2.47;;
7899;SDS011;3995;50.856;4.404;2023-03-23T01:24:24;4.00;;;2.83;;
7899;SDS011;3995;50.856;4.404;2023-03-23T01:26:51;3.77;;;2.77;;
7899;SDS011;3995;50.856;4.404;2023-03-23T01:29:19;3.37;;;2.57;;
7899;SDS011;3995;50.856;4.404;2023-03-23T01:31:46;3.10;;;2.80;;
7899;SDS011;3995;50.856;4.404;2023-03-23T01:34:15;3.33;;;2.80;;
7899;SDS011;3995;50.856;4.404;2023-03-23T01:36:42;3.93;;;3.07;;
7899;SDS011;3995;50.856;4.404;2023-03-23T01:39:09;4.27;;;2.60;;
7899;SDS011;3995;50.856;4.404;2023-03-23T01:41:36;3.07;;;2.60;;
7899;SDS011;3995;50.856;4.404;2023-03-23T01:44:06;3.67;;;2.93;;
7899;SDS011;3995;50.856;4.404;2023-03-23T01:46:54;3.07;;;2.33;;
7899;SDS011;3995;50.856;4.404;2023-03-23T01:49:23;2.80;;;2.50;;
7899;SDS011;3995;50.856;4.404;2023-03-23T01:51:56;2.63;;;2.43;;
7899;SDS011;3995;50.856;4.404;2023-03-23T01:54:26;3.00;;;2.40;;
7899;SDS011;3995;50.856;4.404;2023-03-23T01:56:55;3.23;;;2.30;;
7899;SDS011;3995;50.856;4.404;2023-03-23T01:59:25;3.27;;;2.80;;
7899;SDS011;3995;50.856;4.404;2023-03-23T02:01:53;3.67;;;2.33;;
7899;SDS011;3995;50.856;4.404;2023-03-23T02:04:22;5.70;;;2.87;;
7899;SDS011;3995;50.856;4.404;2023-03-23T02:06:52;4.70;;;2.60;;
7899;SDS011;3995;50.856;4.404;2023-03-23T02:09:21;3.47;;;2.70;;
7899;SDS011;3995;50.856;4.404;2023-03-23T02:11:48;6.87;;;2.57;;
7899;SDS011;3995;50.856;4.404;2023-03-23T02:14:16;3.77;;;2.73;;
7899;SDS011;3995;50.856;4.404;2023-03-23T02:16:45;3.63;;;2.47;;
7899;SDS011;3995;50.856;4.404;2023-03-23T02:19:30;5.60;;;2.87;;
7899;SDS011;3995;50.856;4.404;2023-03-23T02:22:38;3.70;;;2.53;;
7899;SDS011;3995;50.856;4.404;2023-03-23T02:25:29;4.97;;;2.50;;
7899;SDS011;3995;50.856;4.404;2023-03-23T02:28:25;2.47;;;2.07;;
7899;SDS011;3995;50.856;4.404;2023-03-23T02:31:21;3.37;;;1.97;;
7899;SDS011;3995;50.856;4.404;2023-03-23T02:33:58;4.47;;;2.43;;
7899;SDS011;3995;50.856;4.404;2023-03-23T02:36:30;4.53;;;2.00;;
7899;SDS011;3995;50.856;4.404;2023-03-23T02:39:03;5.00;;;1.90;;
7899;SDS011;3995;50.856;4.404;2023-03-23T02:41:36;2.50;;;1.57;;
7899;SDS011;3995;50.856;4.404;2023-03-23T02:44:07;4.20;;;1.53;;
7899;SDS011;3995;50.856;4.404;2023-03-23T02:46:36;3.33;;;1.93;;
7899;SDS011;3995;50.856;4.404;2023-03-23T02:49:06;3.23;;;1.60;;
7899;SDS011;3995;50.856;4.404;2023-03-23T02:51:36;3.20;;;1.60;;
7899;SDS011;3995;50.856;4.404;2023-03-23T02:54:04;6.23;;;1.70;;
7899;SDS011;3995;50.856;4.404;2023-03-23T02:56:33;3.20;;;1.60;;
7899;SDS011;3995;50.856;4.404;2023-03-23T02:59:01;2.43;;;1.43;;
7899;SDS011;3995;50.856;4.404;2023-03-23T03:01:46;4.27;;;2.00;;
7899;SDS011;3995;50.856;4.404;2023-03-23T03:04:27;3.10;;;1.70;;
7899;SDS011;3995;50.856;4.404;2023-03-23T03:07:13;4.73;;;1.40;;
7899;SDS011;3995;50.856;4.404;2023-03-23T03:09:55;6.33;;;1.83;;
7899;SDS011;3995;50.856;4.404;2023-03-23T03:12:27;2.93;;;1.60;;
7899;SDS011;3995;50.856;4.404;2023-03-23T03:15:02;3.20;;;1.67;;
7899;SDS011;3995;50.856;4.404;2023-03-23T03:17:39;3.50;;;1.60;;
7899;SDS011;3995;50.856;4.404;2023-03-23T03:20:12;3.57;;;1.73;;
7899;SDS011;3995;50.856;4.404;2023-03-23T03:22:41;5.50;;;1.50;;
7899;SDS011;3995;50.856;4.404;2023-03-23T03:25:11;3.60;;;1.53;;
7899;SDS011;3995;50.856;4.404;2023-03-23T03:27:42;4.10;;;1.57;;
7899;SDS011;3995;50.856;4.404;2023-03-23T03:30:14;2.33;;;1.20;;
7899;SDS011;3995;50.856;4.404;2023-03-23T03:32:47;2.60;;;1.30;;
7899;SDS011;3995;50.856;4.404;2023-03-23T03:35:17;3.13;;;1.10;;
7899;SDS011;3995;50.856;4.404;2023-03-23T03:37:45;4.73;;;1.40;;
7899;SDS011;3995;50.856;4.404;2023-03-23T03:40:13;8.27;;;1.60;;
7899;SDS011;3995;50.856;4.404;2023-03-23T03:42:44;3.87;;;2.07;;
7899;SDS011;3995;50.856;4.404;2023-03-23T03:45:12;3.20;;;1.37;;
7899;SDS011;3995;50.856;4.404;2023-03-23T03:47:40;3.57;;;1.77;;
7899;SDS011;3995;50.856;4.404;2023-03-23T03:50:08;4.07;;;1.63;;
7899;SDS011;3995;50.856;4.404;2023-03-23T03:52:37;2.40;;;1.60;;
7899;SDS011;3995;50.856;4.404;2023-03-23T03:55:05;3.23;;;1.73;;
7899;SDS011;3995;50.856;4.404;2023-03-23T03:57:34;6.00;;;1.80;;
7899;SDS011;3995;50.856;4.404;2023-03-23T04:00:02;2.63;;;1.40;;
7899;SDS011;3995;50.856;4.404;2023-03-23T04:02:39;3.53;;;1.60;;
7899;SDS011;3995;50.856;4.404;2023-03-23T04:05:07;3.97;;;2.00;;
7899;SDS011;3995;50.856;4.404;2023-03-23T04:07:36;5.27;;;2.13;;
7899;SDS011;3995;50.856;4.404;2023-03-23T04:10:05;4.83;;;2.47;;
7899;SDS011;3995;50.856;4.404;2023-03-23T04:12:33;3.77;;;1.70;;
7899;SDS011;3995;50.856;4.404;2023-03-23T04:15:00;5.40;;;2.30;;
7899;SDS011;3995;50.856;4.404;2023-03-23T04:17:28;5.40;;;2.13;;
7899;SDS011;3995;50.856;4.404;2023-03-23T04:19:55;4.00;;;2.00;;
7899;SDS011;3995;50.856;4.404;2023-03-23T04:22:24;11.03;;;2.20;;
7899;SDS011;3995;50.856;4.404;2023-03-23T04:24:56;6.77;;;1.87;;
7899;SDS011;3995;50.856;4.404;2023-03-23T04:27:25;11.60;;;2.23;;
7899;SDS011;3995;50.856;4.404;2023-03-23T04:29:53;4.20;;;2.00;;
7899;SDS011;3995;50.856;4.404;2023-03-23T04:32:21;4.10;;;1.70;;
7899;SDS011;3995;50.856;4.404;2023-03-23T04:34:50;6.33;;;2.03;;
7899;SDS011;3995;50.856;4.404;2023-03-23T04:37:17;4.83;;;2.50;;
7899;SDS011;3995;50.856;4.404;2023-03-23T04:39:44;5.37;;;2.00;;
7899;SDS011;3995;50.856;4.404;2023-03-23T04:42:13;8.97;;;1.97;;
7899;SDS011;3995;50.856;4.404;2023-03-23T04:44:40;4.70;;;1.67;;
7899;SDS011;3995;50.856;4.404;2023-03-23T04:47:08;9.77;;;2.07;;
7899;SDS011;3995;50.856;4.404;2023-03-23T04:49:35;4.53;;;1.70;;
7899;SDS011;3995;50.856;4.404;2023-03-23T04:52:03;5.70;;;1.80;;
7899;SDS011;3995;50.856;4.404;2023-03-23T04:54:30;4.47;;;2.03;;
7899;SDS011;3995;50.856;4.404;2023-03-23T04:56:58;9.17;;;2.80;;
7899;SDS011;3995;50.856;4.404;2023-03-23T04:59:27;4.60;;;1.63;;
7899;SDS011;3995;50.856;4.404;2023-03-23T05:01:55;4.97;;;1.70;;
7899;SDS011;3995;50.856;4.404;2023-03-23T05:04:23;6.63;;;1.70;;
7899;SDS011;3995;50.856;4.404;2023-03-23T05:06:51;4.80;;;1.73;;
7899;SDS011;3995;50.856;4.404;2023-03-23T05:09:18;3.67;;;1.57;;
7899;SDS011;3995;50.856;4.404;2023-03-23T05:11:48;5.37;;;2.10;;
7899;SDS011;3995;50.856;4.404;2023-03-23T05:14:15;4.30;;;1.50;;
7899;SDS011;3995;50.856;4.404;2023-03-23T05:16:43;7.63;;;2.10;;
7899;SDS011;3995;50.856;4.404;2023-03-23T05:19:13;5.20;;;2.43;;
7899;SDS011;3995;50.856;4.404;2023-03-23T05:21:41;5.33;;;1.90;;
7899;SDS011;3995;50.856;4.404;2023-03-23T05:24:09;4.37;;;2.50;;
7899;SDS011;3995;50.856;4.404;2023-03-23T05:26:36;6.70;;;2.07;;
7899;SDS011;3995;50.856;4.404;2023-03-23T05:29:03;3.50;;;1.50;;
7899;SDS011;3995;50.856;4.404;2023-03-23T05:31:30;4.97;;;2.20;;
7899;SDS011;3995;50.856;4.404;2023-03-23T05:33:59;3.87;;;2.00;;
7899;SDS011;3995;50.856;4.404;2023-03-23T05:36:27;7.30;;;2.20;;
7899;SDS011;3995;50.856;4.404;2023-03-23T05:38:54;3.67;;;2.07;;
7899;SDS011;3995;50.856;4.404;2023-03-23T05:41:25;7.43;;;2.40;;
7899;SDS011;3995;50.856;4.404;2023-03-23T05:43:52;2.43;;;1.47;;
7899;SDS011;3995;50.856;4.404;2023-03-23T05:46:20;6.20;;;2.17;;
7899;SDS011;3995;50.856;4.404;2023-03-23T05:48:47;7.13;;;2.53;;
7899;SDS011;3995;50.856;4.404;2023-03-23T05:51:16;8.10;;;2.03;;
7899;SDS011;3995;50.856;4.404;2023-03-23T05:53:43;4.77;;;2.10;;
7899;SDS011;3995;50.856;4.404;2023-03-23T05:56:12;3.53;;;1.50;;
7899;SDS011;3995;50.856;4.404;2023-03-23T05:58:39;5.30;;;1.90;;
7899;SDS011;3995;50.856;4.404;2023-03-23T06:01:06;5.93;;;2.50;;
7899;SDS011;3995;50.856;4.404;2023-03-23T06:03:33;5.17;;;2.00;;
7899;SDS011;3995;50.856;4.404;2023-03-23T06:06:01;7.97;;;2.10;;
7899;SDS011;3995;50.856;4.404;2023-03-23T06:08:30;4.83;;;2.33;;
7899;SDS011;3995;50.856;4.404;2023-03-23T06:10:58;6.53;;;2.07;;
7899;SDS011;3995;50.856;4.404;2023-03-23T06:13:25;5.63;;;2.50;;
7899;SDS011;3995;50.856;4.404;2023-03-23T06:15:54;4.00;;;2.00;;
7899;SDS011;3995;50.856;4.404;2023-03-23T06:18:23;10.60;;;2.17;;
7899;SDS011;3995;50.856;4.404;2023-03-23T06:20:51;7.30;;;2.70;;
7899;SDS011;3995;50.856;4.404;2023-03-23T06:23:20;6.23;;;2.37;;
7899;SDS011;3995;50.856;4.404;2023-03-23T06:25:48;8.67;;;1.90;;
7899;SDS011;3995;50.856;4.404;2023-03-23T06:28:16;6.03;;;1.90;;
7899;SDS011;3995;50.856;4.404;2023-03-23T06:30:44;5.80;;;2.30;;
7899;SDS011;3995;50.856;4.404;2023-03-23T06:33:11;5.20;;;2.70;;
7899;SDS011;3995;50.856;4.404;2023-03-23T06:35:39;5.50;;;2.30;;
7899;SDS011;3995;50.856;4.404;2023-03-23T06:38:08;5.97;;;2.37;;
7899;SDS011;3995;50.856;4.404;2023-03-23T06:40:36;6.07;;;2.53;;
7899;SDS011;3995;50.856;4.404;2023-03-23T06:43:04;4.27;;;1.77;;
7899;SDS011;3995;50.856;4.404;2023-03-23T06:45:31;6.77;;;2.07;;
7899;SDS011;3995;50.856;4.404;2023-03-23T06:47:59;4.87;;;1.80;;
7899;SDS011;3995;50.856;4.404;2023-03-23T06:50:26;8.57;;;3.20;;
7899;SDS011;3995;50.856;4.404;2023-03-23T06:52:54;10.60;;;3.07;;
7899;SDS011;3995;50.856;4.404;2023-03-23T06:55:21;8.00;;;2.60;;
7899;SDS011;3995;50.856;4.404;2023-03-23T06:57:48;7.50;;;2.80;;
7899;SDS011;3995;50.856;4.404;2023-03-23T07:00:17;4.10;;;2.10;;
7899;SDS011;3995;50.856;4.404;2023-03-23T07:02:45;5.03;;;2.30;;
7899;SDS011;3995;50.856;4.404;2023-03-23T07:05:12;3.33;;;2.00;;
7899;SDS011;3995;50.856;4.404;2023-03-23T07:07:40;4.30;;;2.20;;
7899;SDS011;3995;50.856;4.404;2023-03-23T07:10:08;6.37;;;2.67;;
7899;SDS011;3995;50.856;4.404;2023-03-23T07:12:36;4.50;;;1.97;;
7899;SDS011;3995;50.856;4.404;2023-03-23T07:15:05;7.90;;;1.77;;
7899;SDS011;3995;50.856;4.404;2023-03-23T07:17:36;8.13;;;2.10;;
7899;SDS011;3995;50.856;4.404;2023-03-23T07:20:05;4.97;;;1.50;;
7899;SDS011;3995;50.856;4.404;2023-03-23T07:22:34;2.60;;;1.00;;
7899;SDS011;3995;50.856;4.404;2023-03-23T07:25:01;8.33;;;1.47;;
7899;SDS011;3995;50.856;4.404;2023-03-23T07:27:28;3.17;;;1.53;;
7899;SDS011;3995;50.856;4.404;2023-03-23T07:29:55;1.50;;;1.20;;
7899;SDS011;3995;50.856;4.404;2023-03-23T07:32:23;6.47;;;1.47;;
7899;SDS011;3995;50.856;4.404;2023-03-23T07:34:51;4.50;;;1.67;;
7899;SDS011;3995;50.856;4.404;2023-03-23T07:37:18;2.00;;;1.13;;
7899;SDS011;3995;50.856;4.404;2023-03-23T07:39:46;3.07;;;1.57;;
7899;SDS011;3995;50.856;4.404;2023-03-23T07:42:13;4.50;;;1.43;;
7899;SDS011;3995;50.856;4.404;2023-03-23T07:44:41;5.90;;;2.07;;
7899;SDS011;3995;50.856;4.404;2023-03-23T07:47:08;4.03;;;2.10;;
7899;SDS011;3995;50.856;4.404;2023-03-23T07:49:36;4.67;;;1.90;;
7899;SDS011;3995;50.856;4.404;2023-03-23T07:52:05;3.73;;;1.60;;
7899;SDS011;3995;50.856;4.404;2023-03-23T07:54:32;5.60;;;2.20;;
7899;SDS011;3995;50.856;4.404;2023-03-23T07:57:00;5.10;;;1.60;;
7899;SDS011;3995;50.856;4.404;2023-03-23T07:59:27;4.17;;;1.60;;
7899;SDS011;3995;50.856;4.404;2023-03-23T08:01:54;6.37;;;2.10;;
7899;SDS011;3995;50.856;4.404;2023-03-23T08:04:23;4.60;;;1.90;;
7899;SDS011;3995;50.856;4.404;2023-03-23T08:06:50;10.03;;;1.70;;
7899;SDS011;3995;50.856;4.404;2023-03-23T08:09:19;5.30;;;2.17;;
7899;SDS011;3995;50.856;4.404;2023-03-23T08:11:46;4.10;;;1.83;;
7899;SDS011;3995;50.856;4.404;2023-03-23T08:14:13;4.43;;;2.00;;
7899;SDS011;3995;50.856;4.404;2023-03-23T08:16:41;5.03;;;1.70;;
7899;SDS011;3995;50.856;4.404;2023-03-23T08:19:08;5.87;;;1.50;;
7899;SDS011;3995;50.856;4.404;2023-03-23T08:21:36;2.73;;;1.33;;
7899;SDS011;3995;50.856;4.404;2023-03-23T08:24:03;2.40;;;1.20;;
7899;SDS011;3995;50.856;4.404;2023-03-23T08:26:33;1.83;;;1.20;;
7899;SDS011;3995;50.856;4.404;2023-03-23T08:29:00;3.47;;;1.47;;
7899;SDS011;3995;50.856;4.404;2023-03-23T08:31:28;4.00;;;1.67;;
7899;SDS011;3995;50.856;4.404;2023-03-23T08:33:55;2.83;;;1.20;;
7899;SDS011;3995;50.856;4.404;2023-03-23T08:36:22;2.83;;;1.40;;
7899;SDS011;3995;50.856;4.404;2023-03-23T08:38:50;3.00;;;1.33;;
7899;SDS011;3995;50.856;4.404;2023-03-23T08:41:17;2.33;;;1.50;;
7899;SDS011;3995;50.856;4.404;2023-03-23T08:43:46;4.07;;;1.53;;
7899;SDS011;3995;50.856;4.404;2023-03-23T08:46:13;3.40;;;1.47;;
7899;SDS011;3995;50.856;4.404;2023-03-23T08:48:40;3.90;;;1.70;;
7899;SDS011;3995;50.856;4.404;2023-03-23T08:51:09;2.93;;;1.30;;
7899;SDS011;3995;50.856;4.404;2023-03-23T08:53:36;4.63;;;1.83;;
7899;SDS011;3995;50.856;4.404;2023-03-23T08:56:03;4.20;;;1.40;;
7899;SDS011;3995;50.856;4.404;2023-03-23T08:58:32;3.30;;;1.70;;
7899;SDS011;3995;50.856;4.404;2023-03-23T09:01:00;5.27;;;1.87;;
7899;SDS011;3995;50.856;4.404;2023-03-23T09:03:28;2.93;;;1.57;;
7899;SDS011;3995;50.856;4.404;2023-03-23T09:05:58;2.97;;;1.53;;
7899;SDS011;3995;50.856;4.404;2023-03-23T09:08:26;2.20;;;1.30;;
7899;SDS011;3995;50.856;4.404;2023-03-23T09:10:54;2.80;;;1.70;;
7899;SDS011;3995;50.856;4.404;2023-03-23T09:13:21;3.53;;;1.30;;
7899;SDS011;3995;50.856;4.404;2023-03-23T09:15:48;2.43;;;1.63;;
7899;SDS011;3995;50.856;4.404;2023-03-23T09:18:18;2.13;;;1.43;;
7899;SDS011;3995;50.856;4.404;2023-03-23T09:20:45;2.80;;;1.50;;
7899;SDS011;3995;50.856;4.404;2023-03-23T09:23:13;2.60;;;1.60;;
7899;SDS011;3995;50.856;4.404;2023-03-23T09:25:41;4.17;;;1.73;;
7899;SDS011;3995;50.856;4.404;2023-03-23T09:28:08;3.03;;;1.90;;
7899;SDS011;3995;50.856;4.404;2023-03-23T09:30:36;3.77;;;1.53;;
7899;SDS011;3995;50.856;4.404;2023-03-23T09:33:06;2.63;;;1.43;;
7899;SDS011;3995;50.856;4.404;2023-03-23T09:35:35;6.63;;;2.23;;
7899;SDS011;3995;50.856;4.404;2023-03-23T09:38:03;4.37;;;1.93;;
7899;SDS011;3995;50.856;4.404;2023-03-23T09:40:32;3.77;;;1.60;;
7899;SDS011;3995;50.856;4.404;2023-03-23T09:46:08;2.37;;;1.40;;
7899;SDS011;3995;50.856;4.404;2023-03-23T09:48:49;2.33;;;1.40;;
7899;SDS011;3995;50.856;4.404;2023-03-23T09:51:27;3.27;;;2.67;;
7899;SDS011;3995;50.856;4.404;2023-03-23T09:54:04;3.43;;;1.50;;
7899;SDS011;3995;50.856;4.404;2023-03-23T09:56:38;1.97;;;1.50;;
7899;SDS011;3995;50.856;4.404;2023-03-23T09:59:08;2.73;;;1.33;;
7899;SDS011;3995;50.856;4.404;2023-03-23T10:01:41;3.83;;;1.60;;
7899;SDS011;3995;50.856;4.404;2023-03-23T10:04:14;3.63;;;1.43;;
7899;SDS011;3995;50.856;4.404;2023-03-23T10:06:53;5.03;;;1.63;;
7899;SDS011;3995;50.856;4.404;2023-03-23T10:09:25;3.53;;;1.57;;
7899;SDS011;3995;50.856;4.404;2023-03-23T10:11:56;4.00;;;1.90;;
7899;SDS011;3995;50.856;4.404;2023-03-23T10:14:34;4.00;;;1.80;;
7899;SDS011;3995;50.856;4.404;2023-03-23T10:17:13;4.00;;;1.80;;
7899;SDS011;3995;50.856;4.404;2023-03-23T10:19:46;3.93;;;2.03;;
7899;SDS011;3995;50.856;4.404;2023-03-23T10:22:17;3.00;;;1.70;;
7899;SDS011;3995;50.856;4.404;2023-03-23T10:24:51;5.03;;;1.87;;
7899;SDS011;3995;50.856;4.404;2023-03-23T10:27:30;6.07;;;2.60;;
7899;SDS011;3995;50.856;4.404;2023-03-23T10:30:03;4.87;;;2.00;;
7899;SDS011;3995;50.856;4.404;2023-03-23T10:32:43;9.10;;;3.33;;
7899;SDS011;3995;50.856;4.404;2023-03-23T10:35:16;7.50;;;2.07;;
7899;SDS011;3995;50.856;4.404;2023-03-23T10:37:48;6.67;;;2.00;;
7899;SDS011;3995;50.856;4.404;2023-03-23T10:40:19;9.87;;;1.87;;
7899;SDS011;3995;50.856;4.404;2023-03-23T10:42:49;7.63;;;1.83;;
7899;SDS011;3995;50.856;4.404;2023-03-23T10:45:19;3.33;;;1.93;;
7899;SDS011;3995;50.856;4.404;2023-03-23T10:47:51;7.13;;;2.63;;
7899;SDS011;3995;50.856;4.404;2023-03-23T10:50:26;4.20;;;2.00;;
7899;SDS011;3995;50.856;4.404;2023-03-23T10:52:57;5.40;;;2.57;;
7899;SDS011;3995;50.856;4.404;2023-03-23T10:55:35;6.40;;;1.83;;
7899;SDS011;3995;50.856;4.404;2023-03-23T10:58:04;4.10;;;2.37;;
7899;SDS011;3995;50.856;4.404;2023-03-23T11:00:33;5.47;;;2.10;;
7899;SDS011;3995;50.856;4.404;2023-03-23T11:03:22;5.23;;;1.90;;
7899;SDS011;3995;50.856;4.404;2023-03-23T11:05:54;4.53;;;1.80;;
7899;SDS011;3995;50.856;4.404;2023-03-23T11:08:25;4.33;;;2.10;;
7899;SDS011;3995;50.856;4.404;2023-03-23T11:10:56;5.83;;;2.60;;
7899;SDS011;3995;50.856;4.404;2023-03-23T11:13:27;3.87;;;2.10;;
7899;SDS011;3995;50.856;4.404;2023-03-23T11:15:59;5.40;;;2.70;;
7899;SDS011;3995;50.856;4.404;2023-03-23T11:18:27;10.50;;;2.93;;
7899;SDS011;3995;50.856;4.404;2023-03-23T11:21:03;8.90;;;2.57;;
7899;SDS011;3995;50.856;4.404;2023-03-23T11:23:33;6.07;;;2.50;;
7899;SDS011;3995;50.856;4.404;2023-03-23T11:26:08;9.07;;;3.00;;
7899;SDS011;3995;50.856;4.404;2023-03-23T11:28:42;9.00;;;2.77;;
7899;SDS011;3995;50.856;4.404;2023-03-23T11:31:12;5.97;;;2.87;;
7899;SDS011;3995;50.856;4.404;2023-03-23T11:33:43;5.97;;;2.67;;
7899;SDS011;3995;50.856;4.404;2023-03-23T11:36:17;6.50;;;2.67;;
7899;SDS011;3995;50.856;4.404;2023-03-23T11:38:46;7.37;;;2.43;;
7899;SDS011;3995;50.856;4.404;2023-03-23T11:41:18;5.60;;;2.00;;
7899;SDS011;3995;50.856;4.404;2023-03-23T11:43:50;6.10;;;2.60;;
7899;SDS011;3995;50.856;4.404;2023-03-23T11:46:22;5.27;;;2.30;;
7899;SDS011;3995;50.856;4.404;2023-03-23T11:48:59;5.37;;;2.40;;
7899;SDS011;3995;50.856;4.404;2023-03-23T11:51:30;11.33;;;3.07;;
7899;SDS011;3995;50.856;4.404;2023-03-23T11:54:07;6.83;;;2.17;;
7899;SDS011;3995;50.856;4.404;2023-03-23T11:56:42;5.60;;;1.80;;
7899;SDS011;3995;50.856;4.404;2023-03-23T11:59:10;7.13;;;2.50;;
7899;SDS011;3995;50.856;4.404;2023-03-23T12:01:46;7.17;;;2.60;;
7899;SDS011;3995;50.856;4.404;2023-03-23T12:04:24;8.17;;;2.53;;
7899;SDS011;3995;50.856;4.404;2023-03-23T12:07:14;3.83;;;2.00;;
7899;SDS011;3995;50.856;4.404;2023-03-23T12:10:11;9.90;;;2.77;;
7899;SDS011;3995;50.856;4.404;2023-03-23T12:12:49;4.83;;;2.03;;
7899;SDS011;3995;50.856;4.404;2023-03-23T12:15:24;8.50;;;2.47;;
7899;SDS011;3995;50.856;4.404;2023-03-23T12:18:00;3.60;;;1.80;;
7899;SDS011;3995;50.856;4.404;2023-03-23T12:20:35;11.07;;;2.27;;
7899;SDS011;3995;50.856;4.404;2023-03-23T12:23:14;5.87;;;2.43;;
7899;SDS011;3995;50.856;4.404;2023-03-23T12:25:55;5.70;;;2.53;;
7899;SDS011;3995;50.856;4.404;2023-03-23T12:28:42;5.13;;;1.97;;
7899;SDS011;3995;50.856;4.404;2023-03-23T12:31:21;5.33;;;2.17;;
7899;SDS011;3995;50.856;4.404;2023-03-23T12:33:59;5.93;;;2.20;;
7899;SDS011;3995;50.856;4.404;2023-03-23T12:36:35;7.90;;;2.60;;
7899;SDS011;3995;50.856;4.404;2023-03-23T12:42:19;7.23;;;2.27;;
7899;SDS011;3995;50.856;4.404;2023-03-23T12:44:54;6.53;;;2.40;;
7899;SDS011;3995;50.856;4.404;2023-03-23T12:50:15;6.10;;;2.97;;
7899;SDS011;3995;50.856;4.404;2023-03-23T12:52:52;9.20;;;2.80;;
7899;SDS011;3995;50.856;4.404;2023-03-23T12:55:25;7.23;;;2.67;;
7899;SDS011;3995;50.856;4.404;2023-03-23T12:58:01;7.07;;;2.57;;
7899;SDS011;3995;50.856;4.404;2023-03-23T13:00:34;8.17;;;2.30;;
7899;SDS011;3995;50.856;4.404;2023-03-23T13:03:19;9.67;;;2.50;;
7899;SDS011;3995;50.856;4.404;2023-03-23T13:05:53;5.47;;;2.37;;
7899;SDS011;3995;50.856;4.404;2023-03-23T13:08:30;6.13;;;2.80;;
7899;SDS011;3995;50.856;4.404;2023-03-23T13:11:03;4.57;;;2.37;;
7899;SDS011;3995;50.856;4.404;2023-03-23T13:13:41;7.70;;;3.30;;
7899;SDS011;3995;50.856;4.404;2023-03-23T13:16:16;7.93;;;3.03;;
7899;SDS011;3995;50.856;4.404;2023-03-23T13:18:57;5.60;;;3.00;;
7899;SDS011;3995;50.856;4.404;2023-03-23T13:21:33;5.93;;;2.70;;
7899;SDS011;3995;50.856;4.404;2023-03-23T13:24:05;7.57;;;2.20;;
7899;SDS011;3995;50.856;4.404;2023-03-23T13:26:37;10.17;;;3.50;;
7899;SDS011;3995;50.856;4.404;2023-03-23T13:29:09;4.43;;;2.53;;
7899;SDS011;3995;50.856;4.404;2023-03-23T13:31:39;6.83;;;2.63;;
7899;SDS011;3995;50.856;4.404;2023-03-23T13:34:12;7.17;;;2.80;;
7899;SDS011;3995;50.856;4.404;2023-03-23T13:36:44;6.77;;;2.70;;
7899;SDS011;3995;50.856;4.404;2023-03-23T13:39:20;5.80;;;2.47;;
7899;SDS011;3995;50.856;4.404;2023-03-23T13:41:59;8.63;;;3.10;;
7899;SDS011;3995;50.856;4.404;2023-03-23T13:44:41;6.80;;;3.17;;
7899;SDS011;3995;50.856;4.404;2023-03-23T13:47:16;8.23;;;2.50;;
7899;SDS011;3995;50.856;4.404;2023-03-23T13:49:54;10.60;;;3.00;;
7899;SDS011;3995;50.856;4.404;2023-03-23T13:52:36;11.03;;;2.83;;
7899;SDS011;3995;50.856;4.404;2023-03-23T13:55:08;6.43;;;2.60;;
7899;SDS011;3995;50.856;4.404;2023-03-23T13:57:50;8.87;;;4.13;;
7899;SDS011;3995;50.856;4.404;2023-03-23T14:03:18;11.63;;;2.67;;
7899;SDS011;3995;50.856;4.404;2023-03-23T14:05:51;4.67;;;1.93;;
7899;SDS011;3995;50.856;4.404;2023-03-23T14:08:36;7.50;;;3.00;;
7899;SDS011;3995;50.856;4.404;2023-03-23T14:11:16;9.33;;;2.50;;
7899;SDS011;3995;50.856;4.404;2023-03-23T14:13:49;5.80;;;2.33;;
7899;SDS011;3995;50.856;4.404;2023-03-23T14:16:28;6.87;;;2.50;;
7899;SDS011;3995;50.856;4.404;2023-03-23T14:19:02;7.03;;;2.73;;
7899;SDS011;3995;50.856;4.404;2023-03-23T14:21:32;4.77;;;2.13;;
7899;SDS011;3995;50.856;4.404;2023-03-23T14:24:03;7.83;;;2.47;;
7899;SDS011;3995;50.856;4.404;2023-03-23T14:26:39;9.07;;;2.43;;
7899;SDS011;3995;50.856;4.404;2023-03-23T14:29:09;10.30;;;3.00;;
7899;SDS011;3995;50.856;4.404;2023-03-23T14:31:39;9.80;;;3.10;;
7899;SDS011;3995;50.856;4.404;2023-03-23T14:34:11;7.73;;;2.93;;
7899;SDS011;3995;50.856;4.404;2023-03-23T14:36:40;7.40;;;3.33;;
7899;SDS011;3995;50.856;4.404;2023-03-23T14:39:14;8.13;;;3.30;;
7899;SDS011;3995;50.856;4.404;2023-03-23T14:41:45;11.30;;;4.20;;
7899;SDS011;3995;50.856;4.404;2023-03-23T14:44:14;10.07;;;3.07;;
7899;SDS011;3995;50.856;4.404;2023-03-23T14:46:45;11.53;;;3.03;;
7899;SDS011;3995;50.856;4.404;2023-03-23T14:49:13;7.40;;;2.30;;
7899;SDS011;3995;50.856;4.404;2023-03-23T14:51:46;14.73;;;2.10;;
7899;SDS011;3995;50.856;4.404;2023-03-23T14:54:19;8.30;;;2.30;;
7899;SDS011;3995;50.856;4.404;2023-03-23T14:56:50;6.47;;;2.37;;
7899;SDS011;3995;50.856;4.404;2023-03-23T14:59:17;11.53;;;2.60;;
7899;SDS011;3995;50.856;4.404;2023-03-23T15:01:47;5.97;;;2.20;;
7899;SDS011;3995;50.856;4.404;2023-03-23T15:04:17;4.27;;;2.03;;
7899;SDS011;3995;50.856;4.404;2023-03-23T15:06:47;9.30;;;2.13;;
7899;SDS011;3995;50.856;4.404;2023-03-23T15:09:17;11.60;;;2.50;;
7899;SDS011;3995;50.856;4.404;2023-03-23T15:11:50;5.50;;;3.23;;
7899;SDS011;3995;50.856;4.404;2023-03-23T15:14:20;6.77;;;2.97;;
7899;SDS011;3995;50.856;4.404;2023-03-23T15:16:51;6.13;;;3.07;;
7899;SDS011;3995;50.856;4.404;2023-03-23T15:19:21;11.10;;;4.10;;
7899;SDS011;3995;50.856;4.404;2023-03-23T15:21:52;11.70;;;4.43;;
7899;SDS011;3995;50.856;4.404;2023-03-23T15:24:24;6.93;;;3.57;;
7899;SDS011;3995;50.856;4.404;2023-03-23T15:26:54;10.23;;;4.20;;
7899;SDS011;3995;50.856;4.404;2023-03-23T15:29:30;12.70;;;4.20;;
7899;SDS011;3995;50.856;4.404;2023-03-23T15:31:59;7.07;;;3.30;;
7899;SDS011;3995;50.856;4.404;2023-03-23T15:34:29;9.40;;;3.40;;
7899;SDS011;3995;50.856;4.404;2023-03-23T15:37:00;10.50;;;2.70;;
7899;SDS011;3995;50.856;4.404;2023-03-23T15:39:30;8.03;;;3.47;;
7899;SDS011;3995;50.856;4.404;2023-03-23T15:41:58;10.70;;;2.83;;
7899;SDS011;3995;50.856;4.404;2023-03-23T15:44:27;12.73;;;3.60;;
7899;SDS011;3995;50.856;4.404;2023-03-23T15:47:16;7.47;;;3.37;;
7899;SDS011;3995;50.856;4.404;2023-03-23T15:49:46;10.00;;;3.07;;